sensor_id;sensor_type;location;lat;lon;timestamp;pressure;altitude;pressure_sealevel;temperature;humidity
43503;BME280;29098;48.184;16.298;2023-04-01T00:00:24;97895.16;;;10.59;66.96
43503;BME280;29098;48.184;16.298;2023-04-01T00:02:53;97960.63;;;10.80;67.31
43503;BME280;29098;48.184;16.298;2023-04-01T00:05:18;97907.19;;;10.48;66.98
43503;BME280;29098;48.184;16.298;2023-04-01T00:07:44;97923.59;;;10.50;67.20
43503;BME280;29098;48.184;16.298;2023-04-01T00:10:11;97930.19;;;10.34;67.47
43503;BME280;29098;48.184;16.298;2023-04-01T00:12:37;97949.00;;;10.37;68.12
43503;BME280;29098;48.184;16.298;2023-04-01T00:15:05;97948.97;;;10.44;66.95
43503;BME280;29098;48.184;16.298;2023-04-01T00:17:31;97949.78;;;10.45;67.35
43503;BME280;29098;48.184;16.298;2023-04-01T00:19:57;97963.41;;;10.35;67.65
43503;BME280;29098;48.184;16.298;2023-04-01T00:22:24;97947.53;;;10.48;67.05
43503;BME280;29098;48.184;16.298;2023-04-01T00:24:50;97932.16;;;10.45;67.36
43503;BME280;29098;48.184;16.298;2023-04-01T00:27:20;97953.59;;;10.49;66.69
43503;BME280;29098;48.184;16.298;2023-04-01T00:29:46;97936.00;;;10.43;67.21
43503;BME280;29098;48.184;16.298;2023-04-01T00:32:13;97959.38;;;10.32;67.32
43503;BME280;29098;48.184;16.298;2023-04-01T00:34:39;97922.22;;;10.40;67.00
43503;BME280;29098;48.184;16.298;2023-04-01T00:37:06;97962.56;;;10.41;67.40
43503;BME280;29098;48.184;16.298;2023-04-01T00:39:33;97947.75;;;10.47;66.97
43503;BME280;29098;48.184;16.298;2023-04-01T00:42:00;97929.69;;;10.50;66.48
43503;BME280;29098;48.184;16.298;2023-04-01T00:44:29;97946.53;;;10.43;66.54
43503;BME280;29098;48.184;16.298;2023-04-01T00:46:56;97935.41;;;10.40;66.79
43503;BME280;29098;48.184;16.298;2023-04-01T00:49:28;97909.59;;;10.24;67.29
43503;BME280;29098;48.184;16.298;2023-04-01T00:51:57;97935.84;;;10.37;66.99
43503;BME280;29098;48.184;16.298;2023-04-01T00:54:25;97924.56;;;10.30;67.42
43503;BME280;29098;48.184;16.298;2023-04-01T00:56:59;97890.31;;;10.30;66.88
43503;BME280;29098;48.184;16.298;2023-04-01T00:59:52;97918.97;;;10.45;67.21
43503;BME280;29098;48.184;16.298;2023-04-01T01:02:19;97913.25;;;10.23;67.64
43503;BME280;29098;48.184;16.298;2023-04-01T01:04:47;97895.09;;;10.14;67.90
43503;BME280;29098;48.184;16.298;2023-04-01T01:10:07;97903.63;;;10.35;67.39
43503;BME280;29098;48.184;16.298;2023-04-01T01:18:41;97898.13;;;10.44;67.39
43503;BME280;29098;48.184;16.298;2023-04-01T01:32:47;97893.75;;;10.56;66.31
43503;BME280;29098;48.184;16.298;2023-04-01T01:35:37;97879.03;;;10.48;66.90
43503;BME280;29098;48.184;16.298;2023-04-01T01:38:07;97865.41;;;10.26;66.92
43503;BME280;29098;48.184;16.298;2023-04-01T01:40:35;97858.16;;;10.21;67.67
43503;BME280;29098;48.184;16.298;2023-04-01T01:43:06;97868.03;;;10.26;67.80
43503;BME280;29098;48.184;16.298;2023-04-01T01:45:35;97854.09;;;10.25;68.00
43503;BME280;29098;48.184;16.298;2023-04-01T01:48:06;97867.84;;;10.27;68.17
43503;BME280;29098;48.184;16.298;2023-04-01T01:50:35;97838.94;;;10.21;67.98
43503;BME280;29098;48.184;16.298;2023-04-01T01:53:06;97844.91;;;10.09;68.93
43503;BME280;29098;48.184;16.298;2023-04-01T01:55:37;97876.81;;;10.20;69.32
43503;BME280;29098;48.184;16.298;2023-04-01T01:58:28;97892.94;;;10.30;69.85
43503;BME280;29098;48.184;16.298;2023-04-01T02:01:01;97825.53;;;9.97;69.99
43503;BME280;29098;48.184;16.298;2023-04-01T02:03:31;97862.38;;;10.04;70.75
43503;BME280;29098;48.184;16.298;2023-04-01T02:06:00;97894.34;;;10.07;70.68
43503;BME280;29098;48.184;16.298;2023-04-01T02:08:36;97879.97;;;10.03;71.00
43503;BME280;29098;48.184;16.298;2023-04-01T02:11:16;97889.47;;;10.04;70.52
43503;BME280;29098;48.184;16.298;2023-04-01T02:13:55;97910.63;;;10.23;70.90
43503;BME280;29098;48.184;16.298;2023-04-01T02:16:32;97855.78;;;9.87;70.61
43503;BME280;29098;48.184;16.298;2023-04-01T02:19:01;97884.56;;;10.14;70.37
43503;BME280;29098;48.184;16.298;2023-04-01T02:21:31;97887.03;;;10.09;69.91
43503;BME280;29098;48.184;16.298;2023-04-01T02:24:00;97884.22;;;10.04;70.40
43503;BME280;29098;48.184;16.298;2023-04-01T02:26:26;97881.25;;;9.94;70.62
43503;BME280;29098;48.184;16.298;2023-04-01T02:29:01;97880.44;;;9.93;70.85
43503;BME280;29098;48.184;16.298;2023-04-01T02:31:27;97876.66;;;9.89;70.65
43503;BME280;29098;48.184;16.298;2023-04-01T02:33:56;97912.84;;;9.94;70.57
43503;BME280;29098;48.184;16.298;2023-04-01T02:36:30;97909.56;;;10.05;70.72
43503;BME280;29098;48.184;16.298;2023-04-01T02:38:57;97897.91;;;9.87;70.46
43503;BME280;29098;48.184;16.298;2023-04-01T02:41:27;97885.25;;;9.71;70.39
43503;BME280;29098;48.184;16.298;2023-04-01T02:43:53;97895.28;;;9.87;69.99
43503;BME280;29098;48.184;16.298;2023-04-01T02:46:28;97891.47;;;9.83;70.54
43503;BME280;29098;48.184;16.298;2023-04-01T02:48:56;97867.91;;;9.63;70.07
43503;BME280;29098;48.184;16.298;2023-04-01T02:51:22;97903.59;;;9.84;70.07
43503;BME280;29098;48.184;16.298;2023-04-01T02:53:50;97872.09;;;9.71;69.46
43503;BME280;29098;48.184;16.298;2023-04-01T02:56:16;97908.31;;;9.76;69.60
43503;BME280;29098;48.184;16.298;2023-04-01T02:58:41;97925.56;;;9.71;69.84
43503;BME280;29098;48.184;16.298;2023-04-01T03:01:07;97927.25;;;9.91;69.82
43503;BME280;29098;48.184;16.298;2023-04-01T03:03:33;97914.16;;;9.78;71.11
43503;BME280;29098;48.184;16.298;2023-04-01T03:06:05;97918.44;;;9.79;71.00
43503;BME280;29098;48.184;16.298;2023-04-01T03:08:33;97914.47;;;9.63;71.80
43503;BME280;29098;48.184;16.298;2023-04-01T03:10:59;97893.78;;;9.66;71.57
43503;BME280;29098;48.184;16.298;2023-04-01T03:13:24;97927.09;;;9.79;71.71
43503;BME280;29098;48.184;16.298;2023-04-01T03:15:50;97908.75;;;9.72;71.98
43503;BME280;29098;48.184;16.298;2023-04-01T03:18:25;97952.63;;;9.79;72.14
43503;BME280;29098;48.184;16.298;2023-04-01T03:20:51;97926.97;;;9.67;71.93
43503;BME280;29098;48.184;16.298;2023-04-01T03:23:17;97932.63;;;9.71;72.03
43503;BME280;29098;48.184;16.298;2023-04-01T03:25:45;97925.78;;;9.63;71.98
43503;BME280;29098;48.184;16.298;2023-04-01T03:28:10;97916.50;;;9.61;71.95
43503;BME280;29098;48.184;16.298;2023-04-01T03:30:37;97906.59;;;9.56;72.14
43503;BME280;29098;48.184;16.298;2023-04-01T03:33:03;97909.00;;;9.57;72.45
43503;BME280;29098;48.184;16.298;2023-04-01T03:35:29;97919.47;;;9.71;72.10
43503;BME280;29098;48.184;16.298;2023-04-01T03:37:54;97918.69;;;9.64;72.25
43503;BME280;29098;48.184;16.298;2023-04-01T03:40:21;97908.59;;;9.61;72.11
43503;BME280;29098;48.184;16.298;2023-04-01T03:42:47;97925.44;;;9.53;72.87
43503;BME280;29098;48.184;16.298;2023-04-01T03:45:15;97930.69;;;9.53;73.36
43503;BME280;29098;48.184;16.298;2023-04-01T03:47:41;97868.88;;;9.37;72.78
43503;BME280;29098;48.184;16.298;2023-04-01T03:50:07;97895.06;;;9.50;72.95
43503;BME280;29098;48.184;16.298;2023-04-01T03:52:33;97907.44;;;9.50;73.34
43503;BME280;29098;48.184;16.298;2023-04-01T03:54:59;97891.69;;;9.43;72.89
43503;BME280;29098;48.184;16.298;2023-04-01T03:57:24;97876.50;;;9.45;72.71
43503;BME280;29098;48.184;16.298;2023-04-01T03:59:50;97904.94;;;9.62;72.49
43503;BME280;29098;48.184;16.298;2023-04-01T04:02:19;97900.78;;;9.47;72.63
43503;BME280;29098;48.184;16.298;2023-04-01T04:04:45;97901.72;;;9.59;72.33
43503;BME280;29098;48.184;16.298;2023-04-01T04:07:12;97899.56;;;9.43;72.89
43503;BME280;29098;48.184;16.298;2023-04-01T04:09:38;97886.78;;;9.53;72.03
43503;BME280;29098;48.184;16.298;2023-04-01T04:12:04;97908.22;;;9.57;71.73
43503;BME280;29098;48.184;16.298;2023-04-01T04:14:31;97899.88;;;9.60;71.46
43503;BME280;29098;48.184;16.298;2023-04-01T04:16:57;97901.31;;;9.63;71.09
43503;BME280;29098;48.184;16.298;2023-04-01T04:19:22;97901.59;;;9.48;71.63
43503;BME280;29098;48.184;16.298;2023-04-01T04:21:48;97901.50;;;9.61;71.24
43503;BME280;29098;48.184;16.298;2023-04-01T04:24:14;97879.72;;;9.47;70.99
43503;BME280;29098;48.184;16.298;2023-04-01T04:26:39;97881.13;;;9.50;70.61
43503;BME280;29098;48.184;16.298;2023-04-01T04:29:05;97904.69;;;9.70;70.71
43503;BME280;29098;48.184;16.298;2023-04-01T04:31:31;97897.06;;;9.62;70.45
43503;BME280;29098;48.184;16.298;2023-04-01T04:33:58;97888.16;;;9.63;70.41
43503;BME280;29098;48.184;16.298;2023-04-01T04:36:25;97882.06;;;9.62;70.51
43503;BME280;29098;48.184;16.298;2023-04-01T04:38:50;97912.63;;;9.63;70.90
43503;BME280;29098;48.184;16.298;2023-04-01T04:41:17;97912.47;;;9.58;70.75
43503;BME280;29098;48.184;16.298;2023-04-01T04:43:50;97885.25;;;9.39;70.74
43503;BME280;29098;48.184;16.298;2023-04-01T04:46:16;97925.22;;;9.54;70.50
43503;BME280;29098;48.184;16.298;2023-04-01T04:48:42;97898.72;;;9.56;70.49
43503;BME280;29098;48.184;16.298;2023-04-01T04:51:13;97903.16;;;9.55;70.72
43503;BME280;29098;48.184;16.298;2023-04-01T04:53:48;97884.16;;;9.53;70.55
43503;BME280;29098;48.184;16.298;2023-04-01T04:56:21;97911.25;;;9.54;71.18
43503;BME280;29098;48.184;16.298;2023-04-01T04:58:48;97890.16;;;9.28;71.43
43503;BME280;29098;48.184;16.298;2023-04-01T05:01:15;97928.84;;;9.60;71.12
43503;BME280;29098;48.184;16.298;2023-04-01T05:03:41;97905.06;;;9.41;71.28
43503;BME280;29098;48.184;16.298;2023-04-01T05:06:09;97919.78;;;9.49;71.38
43503;BME280;29098;48.184;16.298;2023-04-01T05:08:36;97937.00;;;9.45;71.70
43503;BME280;29098;48.184;16.298;2023-04-01T05:11:04;97910.47;;;9.53;71.30
43503;BME280;29098;48.184;16.298;2023-04-01T05:13:32;97902.38;;;9.48;71.52
43503;BME280;29098;48.184;16.298;2023-04-01T05:15:57;97932.13;;;9.49;71.72
43503;BME280;29098;48.184;16.298;2023-04-01T05:18:23;97937.00;;;9.45;72.40
43503;BME280;29098;48.184;16.298;2023-04-01T05:20:50;97888.22;;;9.49;71.89
43503;BME280;29098;48.184;16.298;2023-04-01T05:23:19;97903.59;;;9.52;72.08
43503;BME280;29098;48.184;16.298;2023-04-01T05:25:50;97899.09;;;9.59;72.18
43503;BME280;29098;48.184;16.298;2023-04-01T05:28:19;97900.34;;;9.50;72.32
43503;BME280;29098;48.184;16.298;2023-04-01T05:30:45;97938.84;;;9.83;72.19
43503;BME280;29098;48.184;16.298;2023-04-01T05:33:12;97905.28;;;9.72;72.29
43503;BME280;29098;48.184;16.298;2023-04-01T05:35:39;97899.00;;;9.73;72.10
43503;BME280;29098;48.184;16.298;2023-04-01T05:38:05;97925.31;;;9.73;72.22
43503;BME280;29098;48.184;16.298;2023-04-01T05:40:31;97925.94;;;9.68;72.35
43503;BME280;29098;48.184;16.298;2023-04-01T05:43:00;97924.13;;;9.69;72.34
43503;BME280;29098;48.184;16.298;2023-04-01T05:45:26;97925.06;;;9.81;71.90
43503;BME280;29098;48.184;16.298;2023-04-01T05:47:52;97904.63;;;9.83;71.50
43503;BME280;29098;48.184;16.298;2023-04-01T05:50:18;97966.09;;;9.96;71.62
43503;BME280;29098;48.184;16.298;2023-04-01T05:52:44;97931.28;;;9.94;71.52
43503;BME280;29098;48.184;16.298;2023-04-01T05:55:10;97955.31;;;10.04;70.86
43503;BME280;29098;48.184;16.298;2023-04-01T05:57:36;97950.28;;;9.96;71.71
43503;BME280;29098;48.184;16.298;2023-04-01T06:00:02;97929.59;;;10.06;71.40
43503;BME280;29098;48.184;16.298;2023-04-01T06:02:29;97944.47;;;10.19;71.00
43503;BME280;29098;48.184;16.298;2023-04-01T06:05:23;97967.34;;;10.25;70.87
43503;BME280;29098;48.184;16.298;2023-04-01T06:07:51;97967.91;;;10.27;70.16
43503;BME280;29098;48.184;16.298;2023-04-01T06:10:21;97958.09;;;10.41;70.50
43503;BME280;29098;48.184;16.298;2023-04-01T06:13:03;97985.56;;;10.59;69.90
43503;BME280;29098;48.184;16.298;2023-04-01T06:15:39;97999.63;;;10.72;69.50
43503;BME280;29098;48.184;16.298;2023-04-01T06:19:01;97974.38;;;10.64;69.87
43503;BME280;29098;48.184;16.298;2023-04-01T06:26:46;97959.44;;;10.51;69.71
43503;BME280;29098;48.184;16.298;2023-04-01T06:35:40;97967.69;;;10.61;69.87
43503;BME280;29098;48.184;16.298;2023-04-01T06:38:33;97965.09;;;10.54;69.52
43503;BME280;29098;48.184;16.298;2023-04-01T06:41:17;97977.91;;;10.76;69.74
43503;BME280;29098;48.184;16.298;2023-04-01T06:49:48;97984.81;;;11.15;68.63
43503;BME280;29098;48.184;16.298;2023-04-01T06:57:43;97990.75;;;11.10;68.87
43503;BME280;29098;48.184;16.298;2023-04-01T07:05:33;97984.16;;;11.19;67.43
43503;BME280;29098;48.184;16.298;2023-04-01T07:08:04;98006.88;;;11.20;68.09
43503;BME280;29098;48.184;16.298;2023-04-01T07:11:01;97984.38;;;10.99;67.65
43503;BME280;29098;48.184;16.298;2023-04-01T07:21:40;97990.19;;;11.08;67.11
43503;BME280;29098;48.184;16.298;2023-04-01T07:24:29;98002.06;;;11.36;66.55
43503;BME280;29098;48.184;16.298;2023-04-01T07:26:57;97997.22;;;11.14;66.00
43503;BME280;29098;48.184;16.298;2023-04-01T07:29:25;98013.34;;;11.43;66.19
43503;BME280;29098;48.184;16.298;2023-04-01T07:34:26;98027.81;;;11.41;65.94
43503;BME280;29098;48.184;16.298;2023-04-01T07:37:17;98025.06;;;11.47;66.09
43503;BME280;29098;48.184;16.298;2023-04-01T07:50:29;98039.72;;;11.99;63.27
43503;BME280;29098;48.184;16.298;2023-04-01T07:53:11;98054.97;;;11.78;64.06
43503;BME280;29098;48.184;16.298;2023-04-01T07:55:59;98031.06;;;11.92;64.53
43503;BME280;29098;48.184;16.298;2023-04-01T07:58:52;98026.47;;;12.18;63.25
43503;BME280;29098;48.184;16.298;2023-04-01T08:01:49;98008.44;;;12.15;61.18
43503;BME280;29098;48.184;16.298;2023-04-01T08:04:28;98027.81;;;12.51;60.44
43503;BME280;29098;48.184;16.298;2023-04-01T08:07:13;98023.66;;;12.31;60.70
43503;BME280;29098;48.184;16.298;2023-04-01T08:09:48;98011.09;;;12.15;60.94
43503;BME280;29098;48.184;16.298;2023-04-01T08:17:53;98051.63;;;11.90;61.47
43503;BME280;29098;48.184;16.298;2023-04-01T08:23:37;98042.00;;;11.77;62.19
43503;BME280;29098;48.184;16.298;2023-04-01T08:26:25;98062.75;;;12.11;61.88
43503;BME280;29098;48.184;16.298;2023-04-01T08:28:58;98067.50;;;12.21;61.54
43503;BME280;29098;48.184;16.298;2023-04-01T08:33:56;98064.13;;;12.13;60.41
43503;BME280;29098;48.184;16.298;2023-04-01T08:36:36;98024.66;;;12.00;60.28
43503;BME280;29098;48.184;16.298;2023-04-01T08:39:19;98048.81;;;11.85;60.93
43503;BME280;29098;48.184;16.298;2023-04-01T08:44:24;98055.69;;;12.23;60.59
43503;BME280;29098;48.184;16.298;2023-04-01T08:57:15;98077.59;;;12.54;57.39
43503;BME280;29098;48.184;16.298;2023-04-01T09:11:28;98023.38;;;12.64;55.74
43503;BME280;29098;48.184;16.298;2023-04-01T09:19:24;98066.06;;;13.03;55.48
43503;BME280;29098;48.184;16.298;2023-04-01T09:35:21;98075.69;;;12.73;56.60
43503;BME280;29098;48.184;16.298;2023-04-01T09:38:21;98078.72;;;12.89;56.58
43503;BME280;29098;48.184;16.298;2023-04-01T09:44:01;98063.19;;;12.93;55.65
43503;BME280;29098;48.184;16.298;2023-04-01T09:52:18;98083.66;;;13.09;55.47
43503;BME280;29098;48.184;16.298;2023-04-01T10:02:59;98054.09;;;13.12;53.76
43503;BME280;29098;48.184;16.298;2023-04-01T10:11:10;98057.31;;;13.62;52.14
43503;BME280;29098;48.184;16.298;2023-04-01T10:21:59;98072.53;;;13.55;51.31
43503;BME280;29098;48.184;16.298;2023-04-01T10:31:11;98069.97;;;13.24;52.78
43503;BME280;29098;48.184;16.298;2023-04-01T10:38:39;98084.84;;;13.37;54.02
43503;BME280;29098;48.184;16.298;2023-04-01T10:47:29;98066.09;;;13.92;52.17
43503;BME280;29098;48.184;16.298;2023-04-01T10:50:24;98050.94;;;14.16;51.18
43503;BME280;29098;48.184;16.298;2023-04-01T11:23:55;98056.63;;;14.08;49.56
43503;BME280;29098;48.184;16.298;2023-04-01T11:40:45;98046.66;;;14.44;47.94
43503;BME280;29098;48.184;16.298;2023-04-01T11:43:16;98053.53;;;14.91;47.05
43503;BME280;29098;48.184;16.298;2023-04-01T11:45:50;98049.19;;;14.68;46.58
43503;BME280;29098;48.184;16.298;2023-04-01T11:59:16;98066.66;;;18.68;40.11
43503;BME280;29098;48.184;16.298;2023-04-01T12:02:18;98065.84;;;19.25;37.40
43503;BME280;29098;48.184;16.298;2023-04-01T12:05:07;98045.31;;;18.73;36.88
43503;BME280;29098;48.184;16.298;2023-04-01T12:08:02;98059.69;;;20.06;35.22
43503;BME280;29098;48.184;16.298;2023-04-01T12:16:04;98054.06;;;17.05;40.16
43503;BME280;29098;48.184;16.298;2023-04-01T12:21:49;98066.50;;;18.01;39.03
43503;BME280;29098;48.184;16.298;2023-04-01T12:27:08;98049.16;;;16.91;40.46
43503;BME280;29098;48.184;16.298;2023-04-01T12:35:55;98037.56;;;15.65;42.60
43503;BME280;29098;48.184;16.298;2023-04-01T12:44:09;98060.72;;;14.91;45.19
43503;BME280;29098;48.184;16.298;2023-04-01T12:47:30;98068.47;;;14.81;45.85
43503;BME280;29098;48.184;16.298;2023-04-01T12:55:23;98030.78;;;16.57;42.23
43503;BME280;29098;48.184;16.298;2023-04-01T13:04:05;98038.66;;;20.34;35.50
43503;BME280;29098;48.184;16.298;2023-04-01T13:14:31;98024.41;;;20.73;34.23
43503;BME280;29098;48.184;16.298;2023-04-01T13:17:09;98028.16;;;21.80;31.40
43503;BME280;29098;48.184;16.298;2023-04-01T13:19:50;98014.59;;;21.47;30.61
43503;BME280;29098;48.184;16.298;2023-04-01T13:25:07;98029.47;;;23.07;29.00
43503;BME280;29098;48.184;16.298;2023-04-01T13:27:40;98031.06;;;20.46;32.17
43503;BME280;29098;48.184;16.298;2023-04-01T13:36:11;97977.00;;;17.36;37.32
43503;BME280;29098;48.184;16.298;2023-04-01T13:41:58;98024.13;;;21.34;31.64
43503;BME280;29098;48.184;16.298;2023-04-01T13:55:39;98041.66;;;23.60;27.09
43503;BME280;29098;48.184;16.298;2023-04-01T14:25:58;97994.88;;;21.13;30.31
43503;BME280;29098;48.184;16.298;2023-04-01T14:36:41;97998.84;;;18.38;32.39
43503;BME280;29098;48.184;16.298;2023-04-01T14:42:15;97986.25;;;17.23;34.51
43503;BME280;29098;48.184;16.298;2023-04-01T14:47:50;97975.31;;;17.14;34.88
43503;BME280;29098;48.184;16.298;2023-04-01T14:50:20;97996.47;;;18.31;34.84
43503;BME280;29098;48.184;16.298;2023-04-01T14:53:10;98022.84;;;19.87;30.79
43503;BME280;29098;48.184;16.298;2023-04-01T14:58:15;98010.31;;;18.80;31.79
43503;BME280;29098;48.184;16.298;2023-04-01T15:03:32;97993.75;;;20.25;29.97
43503;BME280;29098;48.184;16.298;2023-04-01T15:09:21;97992.69;;;19.05;31.82
43503;BME280;29098;48.184;16.298;2023-04-01T15:31:42;97998.59;;;16.96;37.79
43503;BME280;29098;48.184;16.298;2023-04-01T15:34:18;98016.56;;;17.70;37.64
43503;BME280;29098;48.184;16.298;2023-04-01T15:36:53;98011.41;;;18.69;36.21
43503;BME280;29098;48.184;16.298;2023-04-01T15:42:52;98037.78;;;19.22;35.80
43503;BME280;29098;48.184;16.298;2023-04-01T15:45:35;98026.06;;;18.56;36.45
43503;BME280;29098;48.184;16.298;2023-04-01T15:48:33;98044.75;;;18.56;37.10
43503;BME280;29098;48.184;16.298;2023-04-01T15:51:14;98045.50;;;17.41;38.99
43503;BME280;29098;48.184;16.298;2023-04-01T15:56:21;98047.91;;;16.11;42.36
43503;BME280;29098;48.184;16.298;2023-04-01T15:59:01;98033.97;;;15.99;42.90
43503;BME280;29098;48.184;16.298;2023-04-01T16:01:44;98015.34;;;15.77;43.53
43503;BME280;29098;48.184;16.298;2023-04-01T16:12:58;98023.91;;;15.17;45.00
43503;BME280;29098;48.184;16.298;2023-04-01T16:15:37;98046.63;;;15.47;45.00
43503;BME280;29098;48.184;16.298;2023-04-01T16:20:57;98027.88;;;14.97;45.70
43503;BME280;29098;48.184;16.298;2023-04-01T16:23:47;98060.34;;;15.04;46.25
43503;BME280;29098;48.184;16.298;2023-04-01T16:26:33;98062.94;;;14.99;47.10
43503;BME280;29098;48.184;16.298;2023-04-01T16:31:44;98090.53;;;14.81;48.00
43503;BME280;29098;48.184;16.298;2023-04-01T16:34:44;98087.25;;;14.62;48.83
43503;BME280;29098;48.184;16.298;2023-04-01T16:37:32;98074.78;;;14.45;49.26
43503;BME280;29098;48.184;16.298;2023-04-01T16:40:36;98087.22;;;14.45;49.63
43503;BME280;29098;48.184;16.298;2023-04-01T16:48:58;98111.59;;;14.01;51.89
43503;BME280;29098;48.184;16.298;2023-04-01T16:51:31;98133.41;;;13.79;53.33
43503;BME280;29098;48.184;16.298;2023-04-01T16:57:03;98151.81;;;13.62;53.49
43503;BME280;29098;48.184;16.298;2023-04-01T16:59:34;98140.41;;;13.25;53.72
43503;BME280;29098;48.184;16.298;2023-04-01T17:07:26;98147.25;;;12.60;56.10
43503;BME280;29098;48.184;16.298;2023-04-01T17:13:06;98144.25;;;12.56;57.97
43503;BME280;29098;48.184;16.298;2023-04-01T17:15:46;98142.16;;;12.46;58.74
43503;BME280;29098;48.184;16.298;2023-04-01T17:21:07;98159.00;;;12.33;59.80
43503;BME280;29098;48.184;16.298;2023-04-01T17:23:45;98133.34;;;12.22;60.15
43503;BME280;29098;48.184;16.298;2023-04-01T17:40:48;98176.59;;;11.84;63.07
43503;BME280;29098;48.184;16.298;2023-04-01T17:48:55;98193.72;;;11.74;64.63
43503;BME280;29098;48.184;16.298;2023-04-01T17:56:37;98209.09;;;11.59;65.59
43503;BME280;29098;48.184;16.298;2023-04-01T18:01:55;98206.13;;;11.23;66.66
43503;BME280;29098;48.184;16.298;2023-04-01T18:13:11;98205.97;;;11.43;66.38
43503;BME280;29098;48.184;16.298;2023-04-01T18:16:08;98232.72;;;11.47;66.43
43503;BME280;29098;48.184;16.298;2023-04-01T18:29:58;98253.66;;;11.16;67.73
43503;BME280;29098;48.184;16.298;2023-04-01T18:32:32;98265.63;;;11.12;68.06
43503;BME280;29098;48.184;16.298;2023-04-01T18:38:12;98258.13;;;10.77;69.41
43503;BME280;29098;48.184;16.298;2023-04-01T18:40:54;98262.19;;;10.79;69.58
43503;BME280;29098;48.184;16.298;2023-04-01T18:43:34;98270.47;;;10.76;69.98
43503;BME280;29098;48.184;16.298;2023-04-01T18:46:26;98271.47;;;10.89;69.73
43503;BME280;29098;48.184;16.298;2023-04-01T18:49:23;98300.84;;;10.92;69.60
43503;BME280;29098;48.184;16.298;2023-04-01T18:51:50;98265.13;;;10.96;69.50
43503;BME280;29098;48.184;16.298;2023-04-01T18:54:30;98271.50;;;10.75;70.24
43503;BME280;29098;48.184;16.298;2023-04-01T18:57:12;98304.75;;;10.83;70.82
43503;BME280;29098;48.184;16.298;2023-04-01T19:05:12;98326.50;;;10.65;71.95
43503;BME280;29098;48.184;16.298;2023-04-01T19:07:48;98321.22;;;10.58;72.28
43503;BME280;29098;48.184;16.298;2023-04-01T19:10:40;98340.28;;;10.67;72.90
43503;BME280;29098;48.184;16.298;2023-04-01T19:21:12;98332.41;;;10.47;72.97
43503;BME280;29098;48.184;16.298;2023-04-01T19:24:07;98326.09;;;10.54;72.54
43503;BME280;29098;48.184;16.298;2023-04-01T19:32:56;98317.22;;;10.42;72.97
43503;BME280;29098;48.184;16.298;2023-04-01T19:35:47;98342.72;;;10.28;73.25
43503;BME280;29098;48.184;16.298;2023-04-01T19:38:28;98318.41;;;10.39;73.72
43503;BME280;29098;48.184;16.298;2023-04-01T19:46:25;98345.41;;;10.14;74.47
43503;BME280;29098;48.184;16.298;2023-04-01T19:49:05;98301.44;;;9.95;74.42
43503;BME280;29098;48.184;16.298;2023-04-01T19:54:34;98361.59;;;10.38;73.74
43503;BME280;29098;48.184;16.298;2023-04-01T20:00:07;98355.53;;;10.18;74.88
43503;BME280;29098;48.184;16.298;2023-04-01T20:05:38;98371.75;;;10.14;74.87
43503;BME280;29098;48.184;16.298;2023-04-01T20:08:17;98360.59;;;9.99;75.66
43503;BME280;29098;48.184;16.298;2023-04-01T20:13:30;98332.84;;;9.96;75.47
43503;BME280;29098;48.184;16.298;2023-04-01T20:16:04;98365.03;;;10.19;75.60
43503;BME280;29098;48.184;16.298;2023-04-01T20:18:39;98328.59;;;10.02;75.69
43503;BME280;29098;48.184;16.298;2023-04-01T20:21:33;98348.66;;;10.10;75.77
43503;BME280;29098;48.184;16.298;2023-04-01T20:24:21;98383.69;;;10.10;75.91
43503;BME280;29098;48.184;16.298;2023-04-01T20:26:51;98371.31;;;10.04;76.37
43503;BME280;29098;48.184;16.298;2023-04-01T20:37:48;98341.13;;;10.07;75.19
43503;BME280;29098;48.184;16.298;2023-04-01T20:40:41;98332.84;;;10.03;75.72
43503;BME280;29098;48.184;16.298;2023-04-01T20:46:22;98346.22;;;10.22;75.75
43503;BME280;29098;48.184;16.298;2023-04-01T20:49:20;98317.03;;;9.96;75.68
43503;BME280;29098;48.184;16.298;2023-04-01T20:52:36;98362.22;;;10.13;75.83
43503;BME280;29098;48.184;16.298;2023-04-01T20:58:05;98363.22;;;10.12;76.37
43503;BME280;29098;48.184;16.298;2023-04-01T21:03:35;98360.78;;;10.04;76.92
43503;BME280;29098;48.184;16.298;2023-04-01T21:08:48;98362.22;;;10.00;77.52
43503;BME280;29098;48.184;16.298;2023-04-01T21:14:34;98348.22;;;10.13;76.96
43503;BME280;29098;48.184;16.298;2023-04-01T21:17:10;98358.97;;;9.98;76.97
43503;BME280;29098;48.184;16.298;2023-04-01T21:33:54;98401.28;;;9.90;78.87
43503;BME280;29098;48.184;16.298;2023-04-01T21:39:26;98392.59;;;10.09;77.89
43503;BME280;29098;48.184;16.298;2023-04-01T21:47:55;98385.09;;;10.06;79.81
43503;BME280;29098;48.184;16.298;2023-04-01T21:53:42;98406.16;;;9.86;79.85
43503;BME280;29098;48.184;16.298;2023-04-01T21:59:12;98387.94;;;9.98;80.47
43503;BME280;29098;48.184;16.298;2023-04-01T22:02:03;98397.44;;;9.92;81.12
43503;BME280;29098;48.184;16.298;2023-04-01T22:04:44;98350.44;;;9.76;81.02
43503;BME280;29098;48.184;16.298;2023-04-01T22:07:23;98378.00;;;9.86;80.91
43503;BME280;29098;48.184;16.298;2023-04-01T22:18:04;98413.25;;;9.99;81.59
43503;BME280;29098;48.184;16.298;2023-04-01T22:20:40;98375.75;;;9.90;81.37
43503;BME280;29098;48.184;16.298;2023-04-01T22:31:49;98374.91;;;9.63;82.17
43503;BME280;29098;48.184;16.298;2023-04-01T22:39:50;98403.50;;;9.79;81.47
43503;BME280;29098;48.184;16.298;2023-04-01T22:45:19;98402.91;;;9.91;80.48
43503;BME280;29098;48.184;16.298;2023-04-01T22:50:49;98377.59;;;9.76;81.12
43503;BME280;29098;48.184;16.298;2023-04-01T22:55:40;98344.97;;;9.64;81.66
43503;BME280;29098;48.184;16.298;2023-04-01T22:58:12;98416.47;;;9.87;82.00
43503;BME280;29098;48.184;16.298;2023-04-01T23:00:45;98417.66;;;9.71;82.07
43503;BME280;29098;48.184;16.298;2023-04-01T23:03:26;98418.50;;;9.79;82.16